sensor_id;sensor_type;location;lat;lon;timestamp;temperature;humidity
19281;DHT22;9774;52.034;5.342;2023-11-19T00:00:52;17.60;73.00
19281;DHT22;9774;52.034;5.342;2023-11-19T00:03:19;17.60;73.00
19281;DHT22;9774;52.034;5.342;2023-11-19T00:05:46;17.60;72.90
19281;DHT22;9774;52.034;5.342;2023-11-19T00:08:13;17.60;72.90
19281;DHT22;9774;52.034;5.342;2023-11-19T00:10:40;17.60;72.90
19281;DHT22;9774;52.034;5.342;2023-11-19T00:13:07;17.60;72.90
19281;DHT22;9774;52.034;5.342;2023-11-19T00:15:35;17.60;72.90
19281;DHT22;9774;52.034;5.342;2023-11-19T00:18:04;17.60;72.90
19281;DHT22;9774;52.034;5.342;2023-11-19T00:20:31;17.60;72.90
19281;DHT22;9774;52.034;5.342;2023-11-19T00:22:58;17.60;72.80
19281;DHT22;9774;52.034;5.342;2023-11-19T00:25:26;17.60;72.80
19281;DHT22;9774;52.034;5.342;2023-11-19T00:27:54;17.60;72.90
19281;DHT22;9774;52.034;5.342;2023-11-19T00:30:22;17.60;72.90
19281;DHT22;9774;52.034;5.342;2023-11-19T00:32:49;17.60;72.80
19281;DHT22;9774;52.034;5.342;2023-11-19T00:35:17;17.60;72.80
19281;DHT22;9774;52.034;5.342;2023-11-19T00:37:44;17.60;72.80
19281;DHT22;9774;52.034;5.342;2023-11-19T00:40:13;17.60;72.80
19281;DHT22;9774;52.034;5.342;2023-11-19T00:42:41;17.60;72.80
19281;DHT22;9774;52.034;5.342;2023-11-19T00:45:09;17.60;72.80
19281;DHT22;9774;52.034;5.342;2023-11-19T00:47:38;17.60;72.80
19281;DHT22;9774;52.034;5.342;2023-11-19T00:50:06;17.60;72.80
19281;DHT22;9774;52.034;5.342;2023-11-19T00:52:36;17.60;72.80
19281;DHT22;9774;52.034;5.342;2023-11-19T00:55:04;17.70;72.80
19281;DHT22;9774;52.034;5.342;2023-11-19T00:57:32;17.60;72.70
19281;DHT22;9774;52.034;5.342;2023-11-19T00:59:59;17.60;72.60
19281;DHT22;9774;52.034;5.342;2023-11-19T01:02:26;17.60;72.60
19281;DHT22;9774;52.034;5.342;2023-11-19T01:04:53;17.60;72.50
19281;DHT22;9774;52.034;5.342;2023-11-19T01:07:21;17.60;72.50
19281;DHT22;9774;52.034;5.342;2023-11-19T01:09:51;17.60;72.50
19281;DHT22;9774;52.034;5.342;2023-11-19T01:12:18;17.60;73.30
19281;DHT22;9774;52.034;5.342;2023-11-19T01:14:44;17.60;72.50
19281;DHT22;9774;52.034;5.342;2023-11-19T01:17:11;17.60;72.50
19281;DHT22;9774;52.034;5.342;2023-11-19T01:19:38;17.60;72.50
19281;DHT22;9774;52.034;5.342;2023-11-19T01:22:06;17.60;72.50
19281;DHT22;9774;52.034;5.342;2023-11-19T01:24:33;17.60;72.40
19281;DHT22;9774;52.034;5.342;2023-11-19T01:27:02;17.60;72.40
19281;DHT22;9774;52.034;5.342;2023-11-19T01:29:29;17.60;72.40
19281;DHT22;9774;52.034;5.342;2023-11-19T01:31:56;17.60;72.40
19281;DHT22;9774;52.034;5.342;2023-11-19T01:34:23;17.60;72.30
19281;DHT22;9774;52.034;5.342;2023-11-19T01:36:49;17.60;72.30
19281;DHT22;9774;52.034;5.342;2023-11-19T01:39:17;17.60;72.30
19281;DHT22;9774;52.034;5.342;2023-11-19T01:41:45;17.60;72.20
19281;DHT22;9774;52.034;5.342;2023-11-19T01:44:13;17.60;72.20
19281;DHT22;9774;52.034;5.342;2023-11-19T01:46:42;17.60;72.20
19281;DHT22;9774;52.034;5.342;2023-11-19T01:49:10;17.60;72.10
19281;DHT22;9774;52.034;5.342;2023-11-19T01:51:38;17.60;72.00
19281;DHT22;9774;52.034;5.342;2023-11-19T01:54:06;17.60;72.00
19281;DHT22;9774;52.034;5.342;2023-11-19T01:56:35;17.60;72.00
19281;DHT22;9774;52.034;5.342;2023-11-19T01:59:04;17.60;72.00
19281;DHT22;9774;52.034;5.342;2023-11-19T02:01:32;17.60;71.90
19281;DHT22;9774;52.034;5.342;2023-11-19T02:04:05;17.60;71.80
19281;DHT22;9774;52.034;5.342;2023-11-19T02:06:34;17.60;71.60
19281;DHT22;9774;52.034;5.342;2023-11-19T02:09:05;17.60;71.50
19281;DHT22;9774;52.034;5.342;2023-11-19T02:11:33;17.50;71.40
19281;DHT22;9774;52.034;5.342;2023-11-19T02:14:00;17.50;71.30
19281;DHT22;9774;52.034;5.342;2023-11-19T02:16:29;17.50;71.20
19281;DHT22;9774;52.034;5.342;2023-11-19T02:18:57;17.40;71.20
19281;DHT22;9774;52.034;5.342;2023-11-19T02:21:24;17.40;71.20
19281;DHT22;9774;52.034;5.342;2023-11-19T02:23:51;17.40;71.10
19281;DHT22;9774;52.034;5.342;2023-11-19T02:26:26;17.30;71.00
19281;DHT22;9774;52.034;5.342;2023-11-19T02:29:01;17.30;71.00
19281;DHT22;9774;52.034;5.342;2023-11-19T02:31:29;17.20;71.00
19281;DHT22;9774;52.034;5.342;2023-11-19T02:33:56;17.20;71.00
19281;DHT22;9774;52.034;5.342;2023-11-19T02:36:23;17.20;71.00
19281;DHT22;9774;52.034;5.342;2023-11-19T02:38:50;17.10;70.90
19281;DHT22;9774;52.034;5.342;2023-11-19T02:41:17;17.10;71.00
19281;DHT22;9774;52.034;5.342;2023-11-19T02:43:44;17.10;71.00
19281;DHT22;9774;52.034;5.342;2023-11-19T02:46:12;17.00;70.90
19281;DHT22;9774;52.034;5.342;2023-11-19T02:48:39;17.00;70.90
19281;DHT22;9774;52.034;5.342;2023-11-19T02:51:07;17.00;70.90
19281;DHT22;9774;52.034;5.342;2023-11-19T02:53:35;16.90;70.90
19281;DHT22;9774;52.034;5.342;2023-11-19T02:56:04;16.90;70.80
19281;DHT22;9774;52.034;5.342;2023-11-19T02:58:42;16.90;70.80
19281;DHT22;9774;52.034;5.342;2023-11-19T03:01:11;16.80;70.70
19281;DHT22;9774;52.034;5.342;2023-11-19T03:03:48;16.80;70.80
19281;DHT22;9774;52.034;5.342;2023-11-19T03:06:20;16.70;70.70
19281;DHT22;9774;52.034;5.342;2023-11-19T03:08:49;16.70;70.70
19281;DHT22;9774;52.034;5.342;2023-11-19T03:11:16;16.70;70.70
19281;DHT22;9774;52.034;5.342;2023-11-19T03:13:43;16.70;70.70
19281;DHT22;9774;52.034;5.342;2023-11-19T03:16:12;16.60;70.70
19281;DHT22;9774;52.034;5.342;2023-11-19T03:18:39;16.60;70.70
19281;DHT22;9774;52.034;5.342;2023-11-19T03:21:06;16.50;70.60
19281;DHT22;9774;52.034;5.342;2023-11-19T03:23:34;16.50;70.60
19281;DHT22;9774;52.034;5.342;2023-11-19T03:26:01;16.50;70.60
19281;DHT22;9774;52.034;5.342;2023-11-19T03:28:31;16.40;70.60
19281;DHT22;9774;52.034;5.342;2023-11-19T03:30:58;16.40;70.60
19281;DHT22;9774;52.034;5.342;2023-11-19T03:33:26;16.30;70.60
19281;DHT22;9774;52.034;5.342;2023-11-19T03:35:54;16.30;70.60
19281;DHT22;9774;52.034;5.342;2023-11-19T03:38:22;16.20;70.50
19281;DHT22;9774;52.034;5.342;2023-11-19T03:40:49;16.20;70.60
19281;DHT22;9774;52.034;5.342;2023-11-19T03:43:16;16.20;70.60
19281;DHT22;9774;52.034;5.342;2023-11-19T03:45:44;16.20;70.70
19281;DHT22;9774;52.034;5.342;2023-11-19T03:48:12;16.10;70.60
19281;DHT22;9774;52.034;5.342;2023-11-19T03:50:42;16.10;70.60
19281;DHT22;9774;52.034;5.342;2023-11-19T03:53:11;16.00;70.60
19281;DHT22;9774;52.034;5.342;2023-11-19T03:55:39;16.00;70.60
19281;DHT22;9774;52.034;5.342;2023-11-19T03:58:05;16.00;70.60
19281;DHT22;9774;52.034;5.342;2023-11-19T04:00:32;15.90;70.60
19281;DHT22;9774;52.034;5.342;2023-11-19T04:02:59;15.90;70.60
19281;DHT22;9774;52.034;5.342;2023-11-19T04:05:27;15.90;70.60
19281;DHT22;9774;52.034;5.342;2023-11-19T04:07:55;15.80;70.60
19281;DHT22;9774;52.034;5.342;2023-11-19T04:10:22;15.80;70.70
19281;DHT22;9774;52.034;5.342;2023-11-19T04:12:49;15.80;70.80
19281;DHT22;9774;52.034;5.342;2023-11-19T04:15:16;15.80;70.80
19281;DHT22;9774;52.034;5.342;2023-11-19T04:17:43;15.70;70.80
19281;DHT22;9774;52.034;5.342;2023-11-19T04:20:11;15.70;70.80
19281;DHT22;9774;52.034;5.342;2023-11-19T04:22:38;15.70;70.80
19281;DHT22;9774;52.034;5.342;2023-11-19T04:25:08;15.70;70.80
19281;DHT22;9774;52.034;5.342;2023-11-19T04:27:35;15.70;70.80
19281;DHT22;9774;52.034;5.342;2023-11-19T04:30:02;15.60;70.70
19281;DHT22;9774;52.034;5.342;2023-11-19T04:32:30;15.60;70.80
19281;DHT22;9774;52.034;5.342;2023-11-19T04:34:57;15.60;70.80
19281;DHT22;9774;52.034;5.342;2023-11-19T04:37:24;15.60;70.80
19281;DHT22;9774;52.034;5.342;2023-11-19T04:39:51;15.60;70.80
19281;DHT22;9774;52.034;5.342;2023-11-19T04:42:21;15.50;70.70
19281;DHT22;9774;52.034;5.342;2023-11-19T04:44:49;15.50;70.70
19281;DHT22;9774;52.034;5.342;2023-11-19T04:47:16;15.50;70.60
19281;DHT22;9774;52.034;5.342;2023-11-19T04:49:43;15.50;70.70
19281;DHT22;9774;52.034;5.342;2023-11-19T04:52:10;15.50;70.70
19281;DHT22;9774;52.034;5.342;2023-11-19T04:54:41;15.40;70.60
19281;DHT22;9774;52.034;5.342;2023-11-19T04:57:08;15.40;70.60
19281;DHT22;9774;52.034;5.342;2023-11-19T04:59:38;15.40;70.70
19281;DHT22;9774;52.034;5.342;2023-11-19T05:02:05;15.40;70.70
19281;DHT22;9774;52.034;5.342;2023-11-19T05:04:32;15.40;70.60
19281;DHT22;9774;52.034;5.342;2023-11-19T05:06:59;15.40;70.60
19281;DHT22;9774;52.034;5.342;2023-11-19T05:09:26;15.40;70.60
19281;DHT22;9774;52.034;5.342;2023-11-19T05:11:53;15.40;70.60
19281;DHT22;9774;52.034;5.342;2023-11-19T05:14:20;15.30;70.60
19281;DHT22;9774;52.034;5.342;2023-11-19T05:16:51;15.30;70.60
19281;DHT22;9774;52.034;5.342;2023-11-19T05:19:18;15.30;70.60
19281;DHT22;9774;52.034;5.342;2023-11-19T05:21:45;15.30;70.60
19281;DHT22;9774;52.034;5.342;2023-11-19T05:24:12;15.30;71.30
19281;DHT22;9774;52.034;5.342;2023-11-19T05:26:39;15.30;70.60
19281;DHT22;9774;52.034;5.342;2023-11-19T05:29:06;15.30;70.60
19281;DHT22;9774;52.034;5.342;2023-11-19T05:31:33;15.20;70.60
19281;DHT22;9774;52.034;5.342;2023-11-19T05:34:02;15.20;70.60
19281;DHT22;9774;52.034;5.342;2023-11-19T05:36:29;15.20;70.60
19281;DHT22;9774;52.034;5.342;2023-11-19T05:38:56;15.20;70.60
19281;DHT22;9774;52.034;5.342;2023-11-19T05:41:23;15.20;70.60
19281;DHT22;9774;52.034;5.342;2023-11-19T05:43:50;15.20;70.60
19281;DHT22;9774;52.034;5.342;2023-11-19T05:46:17;15.20;70.60
19281;DHT22;9774;52.034;5.342;2023-11-19T05:48:44;15.20;70.60
19281;DHT22;9774;52.034;5.342;2023-11-19T05:51:13;15.20;70.60
19281;DHT22;9774;52.034;5.342;2023-11-19T05:53:41;15.20;70.60
19281;DHT22;9774;52.034;5.342;2023-11-19T05:56:08;15.20;70.60
19281;DHT22;9774;52.034;5.342;2023-11-19T05:58:35;15.20;70.60
19281;DHT22;9774;52.034;5.342;2023-11-19T06:01:03;15.20;70.60
19281;DHT22;9774;52.034;5.342;2023-11-19T06:03:33;15.20;70.60
19281;DHT22;9774;52.034;5.342;2023-11-19T06:06:00;15.20;70.70
19281;DHT22;9774;52.034;5.342;2023-11-19T06:08:28;15.10;70.70
19281;DHT22;9774;52.034;5.342;2023-11-19T06:10:56;15.20;70.80
19281;DHT22;9774;52.034;5.342;2023-11-19T06:13:23;15.20;70.70
19281;DHT22;9774;52.034;5.342;2023-11-19T06:15:51;15.10;70.70
19281;DHT22;9774;52.034;5.342;2023-11-19T06:18:18;15.20;70.70
19281;DHT22;9774;52.034;5.342;2023-11-19T06:20:46;15.10;70.60
19281;DHT22;9774;52.034;5.342;2023-11-19T06:23:13;15.10;70.60
19281;DHT22;9774;52.034;5.342;2023-11-19T06:25:41;15.10;70.60
19281;DHT22;9774;52.034;5.342;2023-11-19T06:28:09;15.10;70.60
19281;DHT22;9774;52.034;5.342;2023-11-19T06:30:36;15.10;70.60
19281;DHT22;9774;52.034;5.342;2023-11-19T06:33:03;15.10;70.50
19281;DHT22;9774;52.034;5.342;2023-11-19T06:35:30;15.10;70.50
19281;DHT22;9774;52.034;5.342;2023-11-19T06:38:01;15.10;70.50
19281;DHT22;9774;52.034;5.342;2023-11-19T06:40:30;15.10;70.50
19281;DHT22;9774;52.034;5.342;2023-11-19T06:42:59;15.10;70.50
19281;DHT22;9774;52.034;5.342;2023-11-19T06:45:26;15.10;70.50
19281;DHT22;9774;52.034;5.342;2023-11-19T06:47:53;15.10;70.60
19281;DHT22;9774;52.034;5.342;2023-11-19T06:50:20;15.00;70.50
19281;DHT22;9774;52.034;5.342;2023-11-19T06:52:49;15.00;70.50
19281;DHT22;9774;52.034;5.342;2023-11-19T06:55:16;15.00;70.60
19281;DHT22;9774;52.034;5.342;2023-11-19T06:57:43;15.00;70.60
19281;DHT22;9774;52.034;5.342;2023-11-19T07:00:12;15.00;70.60
19281;DHT22;9774;52.034;5.342;2023-11-19T07:02:43;15.00;70.60
19281;DHT22;9774;52.034;5.342;2023-11-19T07:05:10;15.00;70.60
19281;DHT22;9774;52.034;5.342;2023-11-19T07:07:37;15.00;70.60
19281;DHT22;9774;52.034;5.342;2023-11-19T07:10:06;15.00;70.60
19281;DHT22;9774;52.034;5.342;2023-11-19T07:12:34;15.00;70.60
19281;DHT22;9774;52.034;5.342;2023-11-19T07:15:02;15.00;70.60
19281;DHT22;9774;52.034;5.342;2023-11-19T07:17:32;15.00;70.60
19281;DHT22;9774;52.034;5.342;2023-11-19T07:20:00;15.00;70.60
19281;DHT22;9774;52.034;5.342;2023-11-19T07:22:27;14.90;70.60
19281;DHT22;9774;52.034;5.342;2023-11-19T07:24:55;14.90;71.50
19281;DHT22;9774;52.034;5.342;2023-11-19T07:27:23;15.00;70.90
19281;DHT22;9774;52.034;5.342;2023-11-19T07:29:50;15.00;71.00
19281;DHT22;9774;52.034;5.342;2023-11-19T07:32:16;15.00;71.10
19281;DHT22;9774;52.034;5.342;2023-11-19T07:34:45;15.00;71.10
19281;DHT22;9774;52.034;5.342;2023-11-19T07:37:12;15.00;71.80
19281;DHT22;9774;52.034;5.342;2023-11-19T07:39:39;15.10;71.20
19281;DHT22;9774;52.034;5.342;2023-11-19T07:42:06;15.10;71.20
19281;DHT22;9774;52.034;5.342;2023-11-19T07:44:34;15.10;71.20
19281;DHT22;9774;52.034;5.342;2023-11-19T07:47:02;15.10;71.20
19281;DHT22;9774;52.034;5.342;2023-11-19T07:49:30;15.20;71.20
19281;DHT22;9774;52.034;5.342;2023-11-19T07:51:58;15.20;71.20
19281;DHT22;9774;52.034;5.342;2023-11-19T07:54:25;15.20;71.10
19281;DHT22;9774;52.034;5.342;2023-11-19T07:56:52;15.20;71.00
19281;DHT22;9774;52.034;5.342;2023-11-19T07:59:19;15.30;71.00
19281;DHT22;9774;52.034;5.342;2023-11-19T08:01:47;15.30;70.90
19281;DHT22;9774;52.034;5.342;2023-11-19T08:04:14;15.30;70.90
19281;DHT22;9774;52.034;5.342;2023-11-19T08:06:41;15.30;70.80
19281;DHT22;9774;52.034;5.342;2023-11-19T08:09:09;15.30;70.90
19281;DHT22;9774;52.034;5.342;2023-11-19T08:11:39;15.30;71.00
19281;DHT22;9774;52.034;5.342;2023-11-19T08:14:06;15.30;70.90
19281;DHT22;9774;52.034;5.342;2023-11-19T08:16:34;15.40;71.00
19281;DHT22;9774;52.034;5.342;2023-11-19T08:19:02;15.30;71.00
19281;DHT22;9774;52.034;5.342;2023-11-19T08:21:29;15.40;71.10
19281;DHT22;9774;52.034;5.342;2023-11-19T08:23:56;15.40;71.00
19281;DHT22;9774;52.034;5.342;2023-11-19T08:26:24;15.50;71.00
19281;DHT22;9774;52.034;5.342;2023-11-19T08:28:52;15.50;71.00
19281;DHT22;9774;52.034;5.342;2023-11-19T08:31:18;15.50;70.90
19281;DHT22;9774;52.034;5.342;2023-11-19T08:33:46;15.50;70.90
19281;DHT22;9774;52.034;5.342;2023-11-19T08:36:16;15.60;70.90
19281;DHT22;9774;52.034;5.342;2023-11-19T08:38:43;15.60;70.80
19281;DHT22;9774;52.034;5.342;2023-11-19T08:41:10;15.60;70.70
19281;DHT22;9774;52.034;5.342;2023-11-19T08:43:38;15.70;70.80
19281;DHT22;9774;52.034;5.342;2023-11-19T08:46:09;15.70;70.70
19281;DHT22;9774;52.034;5.342;2023-11-19T08:48:37;15.70;70.70
19281;DHT22;9774;52.034;5.342;2023-11-19T08:51:04;15.70;70.70
19281;DHT22;9774;52.034;5.342;2023-11-19T08:53:32;15.80;70.70
19281;DHT22;9774;52.034;5.342;2023-11-19T08:55:59;15.80;70.70
19281;DHT22;9774;52.034;5.342;2023-11-19T08:58:28;15.80;70.70
19281;DHT22;9774;52.034;5.342;2023-11-19T09:00:57;15.90;70.70
19281;DHT22;9774;52.034;5.342;2023-11-19T09:03:24;15.90;70.60
19281;DHT22;9774;52.034;5.342;2023-11-19T09:05:52;15.90;70.60
19281;DHT22;9774;52.034;5.342;2023-11-19T09:08:19;16.00;70.50
19281;DHT22;9774;52.034;5.342;2023-11-19T09:10:45;16.00;70.50
19281;DHT22;9774;52.034;5.342;2023-11-19T09:13:12;16.10;70.40
19281;DHT22;9774;52.034;5.342;2023-11-19T09:15:40;16.10;70.30
19281;DHT22;9774;52.034;5.342;2023-11-19T09:18:09;16.10;70.30
19281;DHT22;9774;52.034;5.342;2023-11-19T09:20:36;16.20;70.40
19281;DHT22;9774;52.034;5.342;2023-11-19T09:23:04;16.30;70.50
19281;DHT22;9774;52.034;5.342;2023-11-19T09:25:31;16.30;70.30
19281;DHT22;9774;52.034;5.342;2023-11-19T09:27:58;16.30;70.20
19281;DHT22;9774;52.034;5.342;2023-11-19T09:30:25;16.40;70.00
19281;DHT22;9774;52.034;5.342;2023-11-19T09:32:52;16.40;69.90
19281;DHT22;9774;52.034;5.342;2023-11-19T09:35:20;16.40;69.80
19281;DHT22;9774;52.034;5.342;2023-11-19T09:37:47;16.40;69.70
19281;DHT22;9774;52.034;5.342;2023-11-19T09:40:14;16.50;69.80
19281;DHT22;9774;52.034;5.342;2023-11-19T09:42:44;16.50;69.80
19281;DHT22;9774;52.034;5.342;2023-11-19T09:45:14;16.50;69.90
19281;DHT22;9774;52.034;5.342;2023-11-19T09:47:43;16.60;70.00
19281;DHT22;9774;52.034;5.342;2023-11-19T09:50:14;16.70;70.10
19281;DHT22;9774;52.034;5.342;2023-11-19T09:52:45;16.70;70.10
19281;DHT22;9774;52.034;5.342;2023-11-19T09:55:12;16.80;69.80
19281;DHT22;9774;52.034;5.342;2023-11-19T09:57:40;16.80;69.60
19281;DHT22;9774;52.034;5.342;2023-11-19T10:00:10;16.90;69.50
19281;DHT22;9774;52.034;5.342;2023-11-19T10:02:40;16.90;69.20
19281;DHT22;9774;52.034;5.342;2023-11-19T10:05:09;16.90;69.00
19281;DHT22;9774;52.034;5.342;2023-11-19T10:07:38;16.90;68.90
19281;DHT22;9774;52.034;5.342;2023-11-19T10:10:07;17.00;68.80
19281;DHT22;9774;52.034;5.342;2023-11-19T10:12:36;17.00;68.70
19281;DHT22;9774;52.034;5.342;2023-11-19T10:15:04;17.00;68.70
19281;DHT22;9774;52.034;5.342;2023-11-19T10:17:34;17.00;68.70
19281;DHT22;9774;52.034;5.342;2023-11-19T10:20:01;17.00;68.60
19281;DHT22;9774;52.034;5.342;2023-11-19T10:22:30;17.00;68.70
19281;DHT22;9774;52.034;5.342;2023-11-19T10:24:57;17.00;68.50
19281;DHT22;9774;52.034;5.342;2023-11-19T10:27:25;17.10;68.60
19281;DHT22;9774;52.034;5.342;2023-11-19T10:29:52;17.10;68.50
19281;DHT22;9774;52.034;5.342;2023-11-19T10:32:19;17.10;68.50
19281;DHT22;9774;52.034;5.342;2023-11-19T10:34:46;17.20;68.50
19281;DHT22;9774;52.034;5.342;2023-11-19T10:37:27;17.10;68.20
19281;DHT22;9774;52.034;5.342;2023-11-19T10:39:57;17.20;67.70
19281;DHT22;9774;52.034;5.342;2023-11-19T10:42:25;17.20;68.20
19281;DHT22;9774;52.034;5.342;2023-11-19T10:44:52;17.20;68.40
19281;DHT22;9774;52.034;5.342;2023-11-19T10:47:19;17.30;68.30
19281;DHT22;9774;52.034;5.342;2023-11-19T10:49:48;17.30;68.40
19281;DHT22;9774;52.034;5.342;2023-11-19T10:52:18;17.40;68.50
19281;DHT22;9774;52.034;5.342;2023-11-19T10:54:49;17.40;68.30
19281;DHT22;9774;52.034;5.342;2023-11-19T11:00:03;17.50;68.00
19281;DHT22;9774;52.034;5.342;2023-11-19T11:02:40;17.50;67.90
19281;DHT22;9774;52.034;5.342;2023-11-19T11:05:11;17.50;67.50
19281;DHT22;9774;52.034;5.342;2023-11-19T11:07:41;17.60;67.60
19281;DHT22;9774;52.034;5.342;2023-11-19T11:10:12;17.60;67.80
19281;DHT22;9774;52.034;5.342;2023-11-19T11:12:41;17.60;67.80
19281;DHT22;9774;52.034;5.342;2023-11-19T11:15:11;17.60;67.80
19281;DHT22;9774;52.034;5.342;2023-11-19T11:17:39;17.70;67.80
19281;DHT22;9774;52.034;5.342;2023-11-19T11:20:09;17.70;67.80
19281;DHT22;9774;52.034;5.342;2023-11-19T11:22:44;17.70;67.60
19281;DHT22;9774;52.034;5.342;2023-11-19T11:25:32;17.70;67.30
19281;DHT22;9774;52.034;5.342;2023-11-19T11:28:17;17.80;67.40
19281;DHT22;9774;52.034;5.342;2023-11-19T11:31:15;17.80;67.30
19281;DHT22;9774;52.034;5.342;2023-11-19T11:34:18;17.80;66.90
19281;DHT22;9774;52.034;5.342;2023-11-19T11:37:03;17.80;66.80
19281;DHT22;9774;52.034;5.342;2023-11-19T11:39:40;17.80;67.20
19281;DHT22;9774;52.034;5.342;2023-11-19T11:42:35;17.90;67.40
19281;DHT22;9774;52.034;5.342;2023-11-19T11:45:04;17.90;67.10
19281;DHT22;9774;52.034;5.342;2023-11-19T11:48:07;17.90;67.30
19281;DHT22;9774;52.034;5.342;2023-11-19T11:50:48;17.90;66.30
19281;DHT22;9774;52.034;5.342;2023-11-19T11:53:17;17.90;66.50
19281;DHT22;9774;52.034;5.342;2023-11-19T11:55:57;18.00;66.80
19281;DHT22;9774;52.034;5.342;2023-11-19T11:58:35;17.90;66.30
19281;DHT22;9774;52.034;5.342;2023-11-19T12:01:05;17.90;66.40
19281;DHT22;9774;52.034;5.342;2023-11-19T12:03:37;17.90;67.40
19281;DHT22;9774;52.034;5.342;2023-11-19T12:06:05;17.90;66.60
19281;DHT22;9774;52.034;5.342;2023-11-19T12:08:34;17.90;66.90
19281;DHT22;9774;52.034;5.342;2023-11-19T12:11:02;18.00;66.80
19281;DHT22;9774;52.034;5.342;2023-11-19T12:13:53;18.00;66.70
19281;DHT22;9774;52.034;5.342;2023-11-19T12:16:24;18.00;65.60
19281;DHT22;9774;52.034;5.342;2023-11-19T12:18:54;18.10;66.50
19281;DHT22;9774;52.034;5.342;2023-11-19T12:21:29;18.10;66.70
19281;DHT22;9774;52.034;5.342;2023-11-19T12:23:58;18.20;66.30
19281;DHT22;9774;52.034;5.342;2023-11-19T12:26:34;18.20;66.60
19281;DHT22;9774;52.034;5.342;2023-11-19T12:29:02;18.20;66.40
19281;DHT22;9774;52.034;5.342;2023-11-19T12:31:34;18.30;66.50
19281;DHT22;9774;52.034;5.342;2023-11-19T12:34:09;18.30;66.30
19281;DHT22;9774;52.034;5.342;2023-11-19T12:36:40;18.40;65.90
19281;DHT22;9774;52.034;5.342;2023-11-19T12:39:10;18.40;66.00
19281;DHT22;9774;52.034;5.342;2023-11-19T12:41:52;18.40;66.20
19281;DHT22;9774;52.034;5.342;2023-11-19T12:44:20;18.50;66.00
19281;DHT22;9774;52.034;5.342;2023-11-19T12:47:02;18.60;66.60
19281;DHT22;9774;52.034;5.342;2023-11-19T12:49:31;18.70;65.90
19281;DHT22;9774;52.034;5.342;2023-11-19T12:51:58;18.80;66.10
19281;DHT22;9774;52.034;5.342;2023-11-19T12:54:33;18.80;65.80
19281;DHT22;9774;52.034;5.342;2023-11-19T12:57:01;18.80;65.30
19281;DHT22;9774;52.034;5.342;2023-11-19T12:59:28;18.80;65.20
19281;DHT22;9774;52.034;5.342;2023-11-19T13:01:56;18.90;65.20
19281;DHT22;9774;52.034;5.342;2023-11-19T13:04:27;18.90;64.80
19281;DHT22;9774;52.034;5.342;2023-11-19T13:06:57;18.90;64.70
19281;DHT22;9774;52.034;5.342;2023-11-19T13:09:25;18.90;64.50
19281;DHT22;9774;52.034;5.342;2023-11-19T13:11:52;18.80;64.10
19281;DHT22;9774;52.034;5.342;2023-11-19T13:14:20;18.80;64.30
19281;DHT22;9774;52.034;5.342;2023-11-19T13:16:47;18.70;64.20
19281;DHT22;9774;52.034;5.342;2023-11-19T13:19:14;18.60;64.10
19281;DHT22;9774;52.034;5.342;2023-11-19T13:21:44;18.60;64.90
19281;DHT22;9774;52.034;5.342;2023-11-19T13:24:14;18.50;64.30
19281;DHT22;9774;52.034;5.342;2023-11-19T13:26:41;18.40;64.30
19281;DHT22;9774;52.034;5.342;2023-11-19T13:29:08;18.30;64.40
19281;DHT22;9774;52.034;5.342;2023-11-19T13:31:36;18.30;64.50
19281;DHT22;9774;52.034;5.342;2023-11-19T13:34:04;18.20;64.60
19281;DHT22;9774;52.034;5.342;2023-11-19T13:36:33;18.20;64.70
19281;DHT22;9774;52.034;5.342;2023-11-19T13:39:00;18.10;64.70
19281;DHT22;9774;52.034;5.342;2023-11-19T13:41:29;18.00;64.80
19281;DHT22;9774;52.034;5.342;2023-11-19T13:43:57;17.80;65.00
19281;DHT22;9774;52.034;5.342;2023-11-19T13:46:24;17.70;65.10
19281;DHT22;9774;52.034;5.342;2023-11-19T13:48:51;17.60;66.00
19281;DHT22;9774;52.034;5.342;2023-11-19T13:51:18;17.60;65.70
19281;DHT22;9774;52.034;5.342;2023-11-19T13:53:45;17.50;65.90
19281;DHT22;9774;52.034;5.342;2023-11-19T13:56:12;17.40;66.00
19281;DHT22;9774;52.034;5.342;2023-11-19T13:58:40;17.30;66.10
19281;DHT22;9774;52.034;5.342;2023-11-19T14:01:07;17.30;66.40
19281;DHT22;9774;52.034;5.342;2023-11-19T14:03:34;17.20;66.50
19281;DHT22;9774;52.034;5.342;2023-11-19T14:06:01;17.20;66.60
19281;DHT22;9774;52.034;5.342;2023-11-19T14:08:28;17.10;66.80
19281;DHT22;9774;52.034;5.342;2023-11-19T14:10:55;17.10;67.00
19281;DHT22;9774;52.034;5.342;2023-11-19T14:13:23;17.10;67.10
19281;DHT22;9774;52.034;5.342;2023-11-19T14:15:51;17.10;67.30
19281;DHT22;9774;52.034;5.342;2023-11-19T14:18:18;17.00;67.50
19281;DHT22;9774;52.034;5.342;2023-11-19T14:20:45;17.10;67.80
19281;DHT22;9774;52.034;5.342;2023-11-19T14:23:12;17.10;67.80
19281;DHT22;9774;52.034;5.342;2023-11-19T14:25:39;17.10;67.90
19281;DHT22;9774;52.034;5.342;2023-11-19T14:28:06;17.20;67.90
19281;DHT22;9774;52.034;5.342;2023-11-19T14:30:34;17.20;67.60
19281;DHT22;9774;52.034;5.342;2023-11-19T14:33:02;17.10;67.30
19281;DHT22;9774;52.034;5.342;2023-11-19T14:35:30;17.20;67.20
19281;DHT22;9774;52.034;5.342;2023-11-19T14:37:58;17.20;67.10
19281;DHT22;9774;52.034;5.342;2023-11-19T14:40:25;17.10;67.00
19281;DHT22;9774;52.034;5.342;2023-11-19T14:42:52;17.10;66.80
19281;DHT22;9774;52.034;5.342;2023-11-19T14:45:19;17.10;66.90
19281;DHT22;9774;52.034;5.342;2023-11-19T14:47:47;17.10;66.90
19281;DHT22;9774;52.034;5.342;2023-11-19T14:50:17;17.00;66.90
19281;DHT22;9774;52.034;5.342;2023-11-19T14:52:43;17.00;66.90
19281;DHT22;9774;52.034;5.342;2023-11-19T14:55:11;17.00;66.90
19281;DHT22;9774;52.034;5.342;2023-11-19T14:57:37;16.90;66.80
19281;DHT22;9774;52.034;5.342;2023-11-19T15:00:06;16.90;66.80
19281;DHT22;9774;52.034;5.342;2023-11-19T15:02:39;16.90;66.90
19281;DHT22;9774;52.034;5.342;2023-11-19T15:05:07;16.90;66.90
19281;DHT22;9774;52.034;5.342;2023-11-19T15:07:37;16.80;66.80
19281;DHT22;9774;52.034;5.342;2023-11-19T15:10:06;16.80;66.80
19281;DHT22;9774;52.034;5.342;2023-11-19T15:12:36;16.80;66.90
19281;DHT22;9774;52.034;5.342;2023-11-19T15:15:07;16.80;67.00
19281;DHT22;9774;52.034;5.342;2023-11-19T15:17:38;16.80;67.00
19281;DHT22;9774;52.034;5.342;2023-11-19T15:20:07;16.70;67.00
19281;DHT22;9774;52.034;5.342;2023-11-19T15:22:36;16.70;67.70
19281;DHT22;9774;52.034;5.342;2023-11-19T15:25:04;16.70;67.00
19281;DHT22;9774;52.034;5.342;2023-11-19T15:27:33;16.70;67.10
19281;DHT22;9774;52.034;5.342;2023-11-19T15:30:00;16.70;67.10
19281;DHT22;9774;52.034;5.342;2023-11-19T15:32:28;16.70;67.10
19281;DHT22;9774;52.034;5.342;2023-11-19T15:34:57;16.70;67.00
19281;DHT22;9774;52.034;5.342;2023-11-19T15:37:25;16.70;67.00
19281;DHT22;9774;52.034;5.342;2023-11-19T15:39:53;16.70;67.00
19281;DHT22;9774;52.034;5.342;2023-11-19T15:42:20;16.70;66.90
19281;DHT22;9774;52.034;5.342;2023-11-19T15:44:47;16.70;67.00
19281;DHT22;9774;52.034;5.342;2023-11-19T15:47:15;16.60;66.90
19281;DHT22;9774;52.034;5.342;2023-11-19T15:49:42;16.60;66.90
19281;DHT22;9774;52.034;5.342;2023-11-19T15:52:10;16.60;66.80
19281;DHT22;9774;52.034;5.342;2023-11-19T15:54:39;16.60;66.90
19281;DHT22;9774;52.034;5.342;2023-11-19T15:57:08;16.60;66.80